Topeka, Indiana
Current Conditions -  °F | °C
As of 11:53 PM on Friday 28 Nov 2014 (Local Time) from KGSH Reporting Station
Clear Clear  
Wind Chill: 24°   Ceiling: Unl
Heat Index: 32°   Visibility: 10mi
Dew Point: 22°   Wind: 10mph
Humidity: 66%   Direction: 180°S
Pressure: 29.99"   Gusts: NA
Location:  41.54°N, 85.54°W
Report Text: KGSH 290453Z AUTO 18009KT 10SM CLR 00/M06 A2999 RMK AO2 SLP165 T00001056 400001128
Loading
Personal Weather Stations






























Interactive Weather Map New forecast layout! Learn more

10-Day Weather Forecast

Advertisements
Track Severe Weather on mobile